PWSweather.com
Personal Weather Stations
Station Observations
IBRABANT12
Leuven, BlandenBE 3052

LeuvenBlandenBE 3052

Lat: 50.8252218, Lon: 4.709682799999996

Elevation: 193

Station Type: Davis Vantage Vue

http://www.weerstationblanden.be

Latest ConditionsUpdated 8:10:17 AM GMT+01:01 Thursday, Dec 18, 2014
Currently Today's Max Today's Min Today's Average
Temperature 52.3°F11.3°C 52.5°F11.4°C 50.6°F10.3°C 51.5°F10.8°C
Dew Point 51.5°F10.8°C 51.6°F10.9°C 49.5°F9.7°C 50.5°F10.3°C
Winds 7.2 mph SW11.6 kmh SW 11.4 mph SW18.3 kmh SW - 6.9 mph 11.1 kmh
Wind Gusts 10.0 mph16.1 kmh 17.0 mph27.4 kmh - -
Humidity 97% 98% 95% 97%
Pressure 29.80 in1009.1 mb 29.80 in1009.1 mb 29.77 in1008.1 mb -
Precipitation - 0.01 in0.3 mm - -
Hour Temp Dew Point Humidity Winds Wind Gusts Pressure Precip Precip Rate Daily Precip Total
08:10 AM 52.3°F11.3°C 51.5°F10.8°C 97% 7.2 mph SW11.6 kmh SW 10.0 mph16.1 kmh 29.80 in1009.1 mb 0.00 in0.0 mm 0.00 in/hr0.0 mm/hr 0.01 in0.3 mm
08:00 AM 52.2°F11.2°C 51.4°F10.8°C 97% 9.7 mph SW15.6 kmh SW 13.0 mph20.9 kmh 29.80 in1009.1 mb 0.00 in0.0 mm 0.00 in/hr0.0 mm/hr 0.01 in0.3 mm
07:50 AM 52.3°F11.3°C 51.5°F10.8°C 97% 7.0 mph W11.3 kmh W 11.0 mph17.7 kmh 29.80 in1009.1 mb 0.00 in0.0 mm 0.00 in/hr0.0 mm/hr 0.01 in0.3 mm
07:40 AM 52.4°F11.3°C 51.6°F10.9°C 97% 8.8 mph SW14.2 kmh SW 12.0 mph19.3 kmh 29.80 in1009.1 mb 0.00 in0.0 mm 0.00 in/hr0.0 mm/hr 0.01 in0.3 mm
07:30 AM 52.5°F11.4°C 51.4°F10.8°C 96% 10.1 mph SSW16.3 kmh SSW 11.0 mph17.7 kmh 29.79 in1008.8 mb 0.00 in0.0 mm 0.00 in/hr0.0 mm/hr 0.01 in0.3 mm
07:20 AM 52.4°F11.3°C 51.6°F10.9°C 97% 7.6 mph SW12.2 kmh SW 11.0 mph17.7 kmh 29.79 in1008.8 mb 0.00 in0.0 mm 0.00 in/hr0.0 mm/hr 0.01 in0.3 mm
07:10 AM 52.3°F11.3°C 51.5°F10.8°C 97% 9.1 mph SW14.6 kmh SW 10.0 mph16.1 kmh 29.79 in1008.8 mb 0.00 in0.0 mm 0.00 in/hr0.0 mm/hr 0.01 in0.3 mm
07:00 AM 52.3°F11.3°C 51.5°F10.8°C 97% 7.4 mph SW11.9 kmh SW 10.0 mph16.1 kmh 29.79 in1008.8 mb 0.00 in0.0 mm 0.00 in/hr0.0 mm/hr 0.01 in0.3 mm
06:50 AM 52.2°F11.2°C 51.4°F10.8°C 97% 8.4 mph SW13.5 kmh SW 10.0 mph16.1 kmh 29.79 in1008.8 mb 0.00 in0.0 mm 0.00 in/hr0.0 mm/hr 0.01 in0.3 mm
06:40 AM 52.2°F11.2°C 51.4°F10.8°C 97% 7.7 mph SW12.4 kmh SW 8.0 mph12.9 kmh 29.79 in1008.8 mb 0.00 in0.0 mm 0.00 in/hr0.0 mm/hr 0.01 in0.3 mm
06:30 AM 52.2°F11.2°C 51.1°F10.6°C 96% 8.1 mph SW13.0 kmh SW 11.0 mph17.7 kmh 29.79 in1008.8 mb 0.00 in0.0 mm 0.00 in/hr0.0 mm/hr 0.01 in0.3 mm
06:20 AM 52.2°F11.2°C 51.1°F10.6°C 96% 6.1 mph SW9.8 kmh SW 11.0 mph17.7 kmh 29.79 in1008.8 mb 0.00 in0.0 mm 0.00 in/hr0.0 mm/hr 0.01 in0.3 mm
06:10 AM 52.1°F11.2°C 51.3°F10.7°C 97% 9.7 mph SW15.6 kmh SW 17.0 mph27.4 kmh 29.79 in1008.8 mb 0.00 in0.0 mm 0.00 in/hr0.0 mm/hr 0.01 in0.3 mm
06:00 AM 52.1°F11.2°C 51.3°F10.7°C 97% 6.8 mph SW10.9 kmh SW 10.0 mph16.1 kmh 29.79 in1008.8 mb 0.00 in0.0 mm 0.00 in/hr0.0 mm/hr 0.01 in0.3 mm
05:50 AM 52.0°F11.1°C 51.2°F10.7°C 97% 8.4 mph SW13.5 kmh SW 11.0 mph17.7 kmh 29.78 in1008.5 mb 0.00 in0.0 mm 0.00 in/hr0.0 mm/hr 0.01 in0.3 mm
05:40 AM 52.0°F11.1°C 51.2°F10.7°C 97% 6.5 mph SW10.5 kmh SW 11.0 mph17.7 kmh 29.78 in1008.5 mb 0.00 in0.0 mm 0.00 in/hr0.0 mm/hr 0.01 in0.3 mm
05:30 AM 51.9°F11.1°C 51.1°F10.6°C 97% 8.4 mph SW13.5 kmh SW 10.0 mph16.1 kmh 29.78 in1008.5 mb 0.00 in0.0 mm 0.00 in/hr0.0 mm/hr 0.01 in0.3 mm
05:20 AM 51.8°F11.0°C 51.0°F10.6°C 97% 8.1 mph WNW13.0 kmh WNW 10.0 mph16.1 kmh 29.77 in1008.1 mb 0.00 in0.0 mm 0.00 in/hr0.0 mm/hr 0.01 in0.3 mm
05:10 AM 51.7°F10.9°C 50.9°F10.5°C 97% 6.6 mph SW10.6 kmh SW 11.0 mph17.7 kmh 29.77 in1008.1 mb 0.00 in0.0 mm 0.00 in/hr0.0 mm/hr 0.01 in0.3 mm
05:00 AM 51.8°F11.0°C 51.0°F10.6°C 97% 7.5 mph SW12.1 kmh SW 8.0 mph12.9 kmh 29.77 in1008.1 mb 0.00 in0.0 mm 0.00 in/hr0.0 mm/hr 0.01 in0.3 mm
04:50 AM 51.7°F10.9°C 50.9°F10.5°C 97% 6.4 mph SSW10.3 kmh SSW 9.0 mph14.5 kmh 29.78 in1008.5 mb 0.00 in0.0 mm 0.00 in/hr0.0 mm/hr 0.01 in0.3 mm
04:40 AM 51.7°F10.9°C 50.8°F10.4°C 97% 6.0 mph SW9.7 kmh SW 9.0 mph14.5 kmh 29.77 in1008.1 mb 0.00 in0.0 mm 0.00 in/hr0.0 mm/hr 0.01 in0.3 mm
04:30 AM 51.6°F10.9°C 50.8°F10.4°C 97% 6.7 mph SW10.8 kmh SW 11.0 mph17.7 kmh 29.77 in1008.1 mb 0.00 in0.0 mm 0.00 in/hr0.0 mm/hr 0.01 in0.3 mm
04:20 AM 51.6°F10.9°C 50.7°F10.4°C 97% 11.4 mph SW18.3 kmh SW 16.0 mph25.7 kmh 29.78 in1008.5 mb 0.00 in0.0 mm 0.00 in/hr0.0 mm/hr 0.01 in0.3 mm
04:10 AM 51.4°F10.8°C 50.6°F10.3°C 97% 6.9 mph SW11.1 kmh SW 8.0 mph12.9 kmh 29.77 in1008.1 mb 0.00 in0.0 mm 0.00 in/hr0.0 mm/hr 0.01 in0.3 mm
04:00 AM 51.3°F10.7°C 50.5°F10.3°C 97% 7.2 mph WSW11.6 kmh WSW 9.0 mph14.5 kmh 29.77 in1008.1 mb 0.00 in0.0 mm 0.00 in/hr0.0 mm/hr 0.01 in0.3 mm
03:50 AM 51.2°F10.7°C 50.7°F10.4°C 98% 9.7 mph SW15.6 kmh SW 12.0 mph19.3 kmh 29.77 in1008.1 mb 0.00 in0.0 mm 0.00 in/hr0.0 mm/hr 0.01 in0.3 mm
03:40 AM 51.1°F10.6°C 50.3°F10.2°C 97% 7.5 mph SW12.1 kmh SW 11.0 mph17.7 kmh 29.77 in1008.1 mb 0.00 in0.0 mm 0.00 in/hr0.0 mm/hr 0.01 in0.3 mm
03:30 AM 51.0°F10.6°C 50.2°F10.1°C 97% 7.3 mph WSW11.7 kmh WSW 10.0 mph16.1 kmh 29.77 in1008.1 mb 0.00 in0.0 mm 0.00 in/hr0.0 mm/hr 0.01 in0.3 mm
03:20 AM 51.0°F10.6°C 50.5°F10.3°C 98% 8.8 mph SW14.2 kmh SW 10.0 mph16.1 kmh 29.77 in1008.1 mb 0.01 in0.3 mm 0.06 in/hr1.5 mm/hr 0.01 in0.3 mm
03:10 AM 50.8°F10.4°C 50.0°F10.0°C 97% 6.9 mph S11.1 kmh S 8.0 mph12.9 kmh 29.78 in1008.5 mb 0.00 in0.0 mm 0.00 in/hr0.0 mm/hr 0.00 in0.0 mm
03:00 AM 50.7°F10.4°C 49.9°F9.9°C 97% 4.8 mph SW7.7 kmh SW 7.0 mph11.3 kmh 29.78 in1008.5 mb 0.00 in0.0 mm 0.00 in/hr0.0 mm/hr 0.00 in0.0 mm
02:50 AM 50.8°F10.4°C 49.9°F9.9°C 97% 4.7 mph SW7.6 kmh SW 7.0 mph11.3 kmh 29.78 in1008.5 mb 0.00 in0.0 mm 0.00 in/hr0.0 mm/hr 0.00 in0.0 mm
02:40 AM 50.8°F10.4°C 50.0°F10.0°C 97% 5.8 mph SW9.3 kmh SW 7.0 mph11.3 kmh 29.78 in1008.5 mb 0.00 in0.0 mm 0.00 in/hr0.0 mm/hr 0.00 in0.0 mm
02:30 AM 50.7°F10.4°C 49.9°F9.9°C 97% 6.0 mph SW9.7 kmh SW 7.0 mph11.3 kmh 29.78 in1008.5 mb 0.00 in0.0 mm 0.00 in/hr0.0 mm/hr 0.00 in0.0 mm
02:20 AM 50.6°F10.3°C 49.8°F9.9°C 97% 6.6 mph SW10.6 kmh SW 8.0 mph12.9 kmh 29.78 in1008.5 mb 0.00 in0.0 mm 0.00 in/hr0.0 mm/hr 0.00 in0.0 mm
02:10 AM 50.6°F10.3°C 49.8°F9.9°C 97% 6.9 mph SSW11.1 kmh SSW 9.0 mph14.5 kmh 29.78 in1008.5 mb 0.00 in0.0 mm 0.00 in/hr0.0 mm/hr 0.00 in0.0 mm
02:00 AM 50.6°F10.3°C 49.8°F9.9°C 97% 6.1 mph SE9.8 kmh SE 9.0 mph14.5 kmh 29.78 in1008.5 mb 0.00 in0.0 mm 0.00 in/hr0.0 mm/hr 0.00 in0.0 mm
01:50 AM 50.6°F10.3°C 49.5°F9.7°C 96% 5.8 mph SW9.3 kmh SW 8.0 mph12.9 kmh 29.78 in1008.5 mb 0.00 in0.0 mm 0.00 in/hr0.0 mm/hr 0.00 in0.0 mm
01:40 AM 50.8°F10.4°C 49.7°F9.8°C 96% 4.2 mph SW6.8 kmh SW 6.0 mph9.7 kmh 29.79 in1008.8 mb 0.00 in0.0 mm 0.00 in/hr0.0 mm/hr 0.00 in0.0 mm
01:30 AM 51.0°F10.6°C 49.6°F9.8°C 95% 7.2 mph SW11.6 kmh SW 7.0 mph11.3 kmh 29.79 in1008.8 mb 0.00 in0.0 mm 0.00 in/hr0.0 mm/hr 0.00 in0.0 mm
01:20 AM 51.0°F10.6°C 49.6°F9.8°C 95% 6.1 mph SSW9.8 kmh SSW 8.0 mph12.9 kmh 29.79 in1008.8 mb 0.00 in0.0 mm 0.00 in/hr0.0 mm/hr 0.00 in0.0 mm
01:10 AM 51.0°F10.6°C 49.6°F9.8°C 95% 6.1 mph SW9.8 kmh SW 8.0 mph12.9 kmh 29.79 in1008.8 mb 0.00 in0.0 mm 0.00 in/hr0.0 mm/hr 0.00 in0.0 mm
01:00 AM 50.9°F10.5°C 49.5°F9.7°C 95% 5.1 mph SW8.2 kmh SW 6.0 mph9.7 kmh 29.79 in1008.8 mb 0.00 in0.0 mm 0.00 in/hr0.0 mm/hr 0.00 in0.0 mm
12:50 AM 51.0°F10.6°C 49.6°F9.8°C 95% 4.6 mph SW7.4 kmh SW 7.0 mph11.3 kmh 29.79 in1008.8 mb 0.00 in0.0 mm 0.00 in/hr0.0 mm/hr 0.00 in0.0 mm
12:40 AM 51.0°F10.6°C 49.6°F9.8°C 95% 5.2 mph SW8.4 kmh SW 6.0 mph9.7 kmh 29.80 in1009.1 mb 0.00 in0.0 mm 0.00 in/hr0.0 mm/hr 0.00 in0.0 mm
12:30 AM 51.0°F10.6°C 49.6°F9.8°C 95% 3.9 mph SW6.3 kmh SW 4.0 mph6.4 kmh 29.80 in1009.1 mb 0.00 in0.0 mm 0.00 in/hr0.0 mm/hr 0.00 in0.0 mm
12:20 AM 51.1°F10.6°C 49.7°F9.8°C 95% 4.2 mph SW6.8 kmh SW 5.0 mph8.0 kmh 29.80 in1009.1 mb 0.00 in0.0 mm 0.00 in/hr0.0 mm/hr 0.00 in0.0 mm
12:10 AM 51.0°F10.6°C 49.6°F9.8°C 95% 4.8 mph SW7.7 kmh SW 9.0 mph14.5 kmh 29.80 in1009.1 mb 0.00 in0.0 mm 0.00 in/hr0.0 mm/hr 0.00 in0.0 mm
12:00 AM 51.1°F10.6°C 49.7°F9.8°C 95% 4.6 mph SW7.4 kmh SW 5.0 mph8.0 kmh 29.79 in1008.8 mb 0.00 in0.0 mm 0.00 in/hr0.0 mm/hr 0.00 in0.0 mm